Terminal Aerodrome Forecast
Issued by NWS

Home | Current Version | Previous Version | Text Only | Print | Product List | Glossary On
Versions: 1 2 3 4 5 6 7 8 9 10 11 12 13 14 15 16 17 18 19 20 21 22 23 24 25 26 27 28
000
FTUS45 KBOI 060122 AAA
TAFMYL
TAF AMD
KMYL 060122Z 0601/0624 03010KT P6SM VCTS SCT080CB BKN150
      TEMPO 0602/0606 VRB25KT -TSRA OVC050CB
     FM060600 35011KT P6SM VCSH BKN070 OVC120
      TEMPO 0606/0610 -SHRA BKN050 OVC070
     FM061600 34010KT P6SM VCSH SCT050 BKN090
     FM062000 33012G22KT P6SM SCT060 BKN120=

USA.gov is the U.S. government's official web portal to all federal, state and local government web resources and services.